Mirante do Paranapanema, Brazil
Current Conditions -  °F | °C
As of 1:00 PM on Saturday 25 Oct 2014 (Local Time) from SBDN Reporting Station
Light Rain Light Rain  
Wind Chill: 73°   Ceiling: 1500
Heat Index: 73°   Visibility: 5mi
Dew Point: 66°   Wind: 7mph
Humidity: 78%   Direction: 30°NNE
Pressure: 30"   Gusts: NA
Location:  22.29°S, 51.91°W
Report Text: SBDN 251500Z 03006KT 8000 -RA SCT010 BKN015 BKN035 23/19 Q1016
Loading
Personal Weather Stations






























Interactive Weather Map
Tropical Storm Tracking
New forecast layout! Learn more

10-Day Weather Forecast

Advertisements
Track Severe Weather on mobile